createdAt,value
2018-11-23T00:00:51.879Z,1.60
2018-11-23T00:03:19.977Z,1.60
2018-11-23T00:05:48.081Z,1.60
2018-11-23T00:08:16.180Z,1.60
2018-11-23T00:10:44.277Z,1.60
2018-11-23T00:13:12.367Z,1.60
2018-11-23T00:15:40.459Z,1.60
2018-11-23T00:18:15.298Z,1.60
2018-11-23T00:20:43.373Z,1.60
2018-11-23T00:23:11.467Z,1.50
2018-11-23T00:25:39.561Z,1.60
2018-11-23T00:28:07.666Z,1.60
2018-11-23T00:30:35.757Z,1.60
2018-11-23T00:33:03.852Z,1.50
2018-11-23T00:35:31.936Z,1.50
2018-11-23T00:38:00.046Z,1.50
2018-11-23T00:40:29.331Z,1.60
2018-11-23T00:42:57.733Z,1.60
2018-11-23T00:45:25.991Z,1.50
2018-11-23T00:47:54.895Z,1.50
2018-11-23T00:50:23.889Z,1.60
2018-11-23T00:52:52.683Z,1.60
2018-11-23T00:55:21.765Z,1.50
2018-11-23T00:57:49.860Z,1.50
2018-11-23T01:00:37.071Z,1.50
2018-11-23T01:03:05.851Z,1.60
2018-11-23T01:05:33.934Z,1.60
2018-11-23T01:08:02.024Z,1.60
2018-11-23T01:10:30.785Z,1.60
2018-11-23T01:12:59.055Z,1.60
2018-11-23T01:15:27.142Z,1.50
2018-11-23T01:17:55.240Z,1.50
2018-11-23T01:20:24.651Z,1.50
2018-11-23T01:22:53.298Z,1.60
2018-11-23T01:25:22.144Z,1.60
2018-11-23T01:27:51.286Z,1.60
2018-11-23T01:30:21.204Z,1.50
2018-11-23T01:32:49.326Z,1.50
2018-11-23T01:35:17.544Z,1.50
2018-11-23T01:37:45.689Z,1.50
2018-11-23T01:40:16.548Z,1.50
2018-11-23T01:42:45.036Z,1.50
2018-11-23T01:45:13.633Z,1.50
2018-11-23T01:47:41.757Z,1.50
2018-11-23T01:50:11.930Z,1.50
2018-11-23T01:52:40.041Z,1.50
2018-11-23T01:55:09.407Z,1.40
2018-11-23T01:57:38.181Z,1.40
2018-11-23T02:00:07.460Z,1.50
2018-11-23T02:02:35.551Z,1.50
2018-11-23T02:05:03.673Z,1.50
2018-11-23T02:07:31.765Z,1.40
2018-11-23T02:09:59.845Z,1.50
2018-11-23T02:12:27.933Z,1.50
2018-11-23T02:14:56.025Z,1.50
2018-11-23T02:17:24.482Z,1.50
2018-11-23T02:19:54.204Z,1.60
2018-11-23T02:22:22.274Z,1.60
2018-11-23T02:24:50.368Z,1.50
2018-11-23T02:27:18.442Z,1.50
2018-11-23T02:29:46.705Z,1.50
2018-11-23T02:32:14.791Z,1.60
2018-11-23T02:34:43.139Z,1.50
2018-11-23T02:37:11.259Z,1.50
2018-11-23T02:39:39.522Z,1.50
2018-11-23T02:42:07.659Z,1.50
2018-11-23T02:44:35.842Z,1.50
2018-11-23T02:47:04.215Z,1.40
2018-11-23T02:49:32.300Z,1.40
2018-11-23T02:52:00.394Z,1.40
2018-11-23T02:54:28.507Z,1.30
2018-11-23T02:56:56.597Z,1.40
2018-11-23T02:59:24.663Z,1.40
2018-11-23T03:01:52.756Z,1.40
2018-11-23T03:04:20.881Z,1.40
2018-11-23T03:06:48.963Z,1.40
2018-11-23T03:09:17.041Z,1.40
2018-11-23T03:11:45.134Z,1.50
2018-11-23T03:14:13.226Z,1.50
2018-11-23T03:16:41.315Z,1.50
2018-11-23T03:19:09.407Z,1.50
2018-11-23T03:24:11.978Z,1.40
2018-11-23T03:26:40.065Z,1.40
2018-11-23T03:29:08.191Z,1.30
2018-11-23T03:31:36.295Z,1.40
2018-11-23T03:34:04.803Z,1.40
2018-11-23T03:36:32.899Z,1.40
2018-11-23T03:39:01.003Z,1.40
2018-11-23T03:41:29.099Z,1.50
2018-11-23T03:43:57.205Z,1.50
2018-11-23T03:46:25.315Z,1.50
2018-11-23T03:48:53.581Z,1.50
2018-11-23T03:51:21.690Z,1.50
2018-11-23T03:53:49.778Z,1.50
2018-11-23T03:56:17.891Z,1.50
2018-11-23T03:58:45.979Z,1.40
2018-11-23T04:01:14.086Z,1.50
2018-11-23T04:03:42.174Z,1.50
2018-11-23T04:06:10.267Z,1.50
2018-11-23T04:08:38.361Z,1.50
2018-11-23T04:11:06.668Z,1.50
2018-11-23T04:13:34.773Z,1.50
2018-11-23T04:16:02.868Z,1.50
2018-11-23T04:18:30.964Z,1.40
2018-11-23T04:21:01.311Z,1.40
2018-11-23T04:23:30.522Z,1.40
2018-11-23T04:25:58.641Z,1.30
2018-11-23T04:28:26.847Z,1.30
2018-11-23T04:30:55.129Z,1.40
2018-11-23T04:33:23.526Z,1.40
2018-11-23T04:35:51.789Z,1.50
2018-11-23T04:38:19.913Z,1.50
2018-11-23T04:40:48.053Z,1.40
2018-11-23T04:43:16.168Z,1.50
2018-11-23T04:45:44.287Z,1.50
2018-11-23T04:48:12.412Z,1.40
2018-11-23T04:50:40.524Z,1.50
2018-11-23T04:53:08.639Z,1.40
2018-11-23T04:55:36.803Z,1.40
2018-11-23T04:58:05.029Z,1.40
2018-11-23T05:00:33.136Z,1.40
2018-11-23T05:03:01.280Z,1.50
2018-11-23T05:05:29.401Z,1.40
2018-11-23T05:07:57.521Z,1.50
2018-11-23T05:10:25.645Z,1.50
2018-11-23T05:12:53.771Z,1.50
2018-11-23T05:15:21.885Z,1.50
2018-11-23T05:17:50.025Z,1.60
2018-11-23T05:20:18.136Z,1.70
2018-11-23T05:22:46.300Z,1.70
2018-11-23T05:25:15.781Z,1.70
2018-11-23T05:27:43.887Z,1.70
2018-11-23T05:30:20.524Z,1.80
2018-11-23T05:32:48.641Z,1.90
2018-11-23T05:35:17.596Z,1.90
2018-11-23T05:37:45.880Z,1.90
2018-11-23T05:40:16.922Z,2.00
2018-11-23T05:42:45.029Z,2.00
2018-11-23T05:45:14.995Z,2.00
2018-11-23T05:47:43.279Z,2.00
2018-11-23T05:50:26.891Z,2.00
2018-11-23T05:52:55.011Z,2.00
2018-11-23T05:55:23.100Z,2.10
2018-11-23T05:57:51.519Z,2.10
2018-11-23T06:00:22.283Z,2.10
2018-11-23T06:02:50.565Z,2.10
2018-11-23T06:05:18.688Z,2.10
2018-11-23T06:07:46.784Z,2.20
2018-11-23T06:10:16.127Z,2.10
2018-11-23T06:12:44.226Z,2.10
2018-11-23T06:15:14.997Z,2.10
2018-11-23T06:17:43.512Z,2.10
2018-11-23T06:20:13.676Z,2.10
2018-11-23T06:22:42.299Z,2.10
2018-11-23T06:25:15.870Z,2.00
2018-11-23T06:27:43.977Z,2.00
2018-11-23T06:30:12.963Z,2.00
2018-11-23T06:32:52.646Z,1.90
2018-11-23T06:35:20.773Z,2.00
2018-11-23T06:37:50.235Z,2.00
2018-11-23T06:40:18.873Z,2.00
2018-11-23T06:42:47.006Z,2.00
2018-11-23T06:45:15.134Z,2.10
2018-11-23T06:47:43.253Z,2.10
2018-11-23T06:50:13.319Z,2.10
2018-11-23T06:52:41.446Z,2.10
2018-11-23T06:55:10.387Z,2.20
2018-11-23T06:57:38.537Z,2.20
2018-11-23T07:00:11.245Z,2.20
2018-11-23T07:02:39.409Z,2.30
2018-11-23T07:05:08.214Z,2.30
2018-11-23T07:07:36.575Z,2.30
2018-11-23T07:10:05.151Z,2.30
2018-11-23T07:12:33.317Z,2.30
2018-11-23T07:15:01.439Z,2.40
2018-11-23T07:17:29.547Z,2.30
2018-11-23T07:19:57.676Z,2.40
2018-11-23T07:22:25.813Z,2.40
2018-11-23T07:24:53.936Z,2.30
2018-11-23T07:27:22.069Z,2.40
2018-11-23T07:29:50.196Z,2.30
2018-11-23T07:32:18.333Z,2.40
2018-11-23T07:34:46.475Z,2.40
2018-11-23T07:37:14.567Z,2.40
2018-11-23T07:39:54.249Z,2.50
2018-11-23T07:42:23.729Z,2.50
2018-11-23T07:44:51.857Z,2.50
2018-11-23T07:47:19.997Z,2.60
2018-11-23T07:49:48.247Z,2.60
2018-11-23T07:52:17.033Z,2.70
2018-11-23T07:54:45.139Z,2.80
2018-11-23T07:57:13.247Z,2.90
2018-11-23T08:03:12.966Z,3.30
2018-11-23T08:05:41.080Z,3.50
2018-11-23T08:08:09.195Z,3.50
2018-11-23T08:10:36.589Z,3.60
2018-11-23T08:13:04.712Z,3.70
2018-11-23T08:15:32.835Z,3.80
2018-11-23T08:18:00.954Z,3.70
2018-11-23T08:20:29.081Z,3.80
2018-11-23T08:22:57.197Z,3.80
2018-11-23T08:25:25.965Z,3.80
2018-11-23T08:27:55.358Z,3.70
2018-11-23T08:30:24.875Z,3.70
2018-11-23T08:32:53.149Z,3.70
2018-11-23T08:35:21.293Z,4.40
2018-11-23T08:37:49.551Z,4.20
2018-11-23T08:40:19.730Z,4.10
2018-11-23T08:42:48.648Z,4.10
2018-11-23T08:45:18.160Z,4.00
2018-11-23T08:47:46.230Z,3.90
2018-11-23T08:50:17.110Z,4.00
2018-11-23T08:52:45.204Z,4.00
2018-11-23T08:55:14.112Z,4.10
2018-11-23T08:57:42.568Z,4.30
2018-11-23T09:00:16.865Z,4.50
2018-11-23T09:02:46.097Z,4.70
2018-11-23T09:05:14.699Z,4.90
2018-11-23T09:07:43.560Z,5.10
2018-11-23T09:10:14.077Z,5.40
2018-11-23T09:12:42.727Z,5.70
2018-11-23T09:15:12.486Z,5.90
2018-11-23T09:17:40.972Z,6.20
2018-11-23T09:20:10.367Z,6.50
2018-11-23T09:22:38.651Z,6.70
2018-11-23T09:25:08.774Z,6.90
2018-11-23T09:27:36.907Z,7.20
2018-11-23T09:30:08.763Z,7.30
2018-11-23T09:32:36.925Z,7.40
2018-11-23T09:35:06.241Z,7.60
2018-11-23T09:37:34.375Z,7.50
2018-11-23T09:40:02.516Z,7.50
2018-11-23T09:42:30.681Z,7.70
2018-11-23T09:44:58.800Z,7.80
2018-11-23T09:47:26.947Z,7.50
2018-11-23T09:49:55.066Z,7.60
2018-11-23T09:52:23.196Z,7.80
2018-11-23T09:54:51.358Z,8.20
2018-11-23T09:57:19.501Z,8.50
2018-11-23T09:59:47.604Z,8.80
2018-11-23T10:02:15.810Z,8.90
2018-11-23T10:04:43.923Z,8.80
2018-11-23T10:07:12.070Z,8.80
2018-11-23T10:09:40.191Z,9.00
2018-11-23T10:12:08.315Z,8.90
2018-11-23T10:14:36.481Z,8.90
2018-11-23T10:17:04.692Z,9.00
2018-11-23T10:19:33.383Z,9.20
2018-11-23T10:22:01.525Z,9.10
2018-11-23T10:24:29.711Z,9.00
2018-11-23T10:26:57.827Z,8.90
2018-11-23T10:29:25.942Z,9.00
2018-11-23T10:31:54.078Z,9.10
2018-11-23T10:34:22.247Z,9.00
2018-11-23T10:36:50.370Z,8.90
2018-11-23T10:39:18.481Z,9.20
2018-11-23T10:41:46.659Z,9.20
2018-11-23T10:44:14.771Z,9.40
2018-11-23T10:46:42.887Z,9.30
2018-11-23T10:49:11.010Z,9.70
2018-11-23T10:51:39.111Z,9.30
2018-11-23T10:54:07.197Z,9.20
2018-11-23T10:56:35.349Z,9.20
2018-11-23T10:59:03.451Z,9.00
2018-11-23T11:01:37.070Z,9.00
2018-11-23T11:04:11.138Z,9.20
2018-11-23T11:06:44.505Z,9.30
2018-11-23T11:09:12.649Z,10.50
2018-11-23T11:11:41.255Z,10.30
2018-11-23T11:14:09.389Z,10.30
2018-11-23T11:16:37.613Z,10.20
2018-11-23T11:19:06.295Z,10.10
2018-11-23T11:21:34.683Z,10.10
2018-11-23T11:24:03.160Z,10.10
2018-11-23T11:26:31.284Z,10.00
2018-11-23T11:28:59.405Z,10.10
2018-11-23T11:31:27.895Z,10.30
2018-11-23T11:33:56.181Z,10.10
2018-11-23T11:36:24.296Z,10.00
2018-11-23T11:38:52.476Z,9.90
2018-11-23T11:41:20.617Z,9.80
2018-11-23T11:43:48.745Z,9.60
2018-11-23T11:46:17.727Z,9.70
2018-11-23T11:48:45.879Z,9.70
2018-11-23T11:51:14.776Z,9.70
2018-11-23T11:53:42.134Z,9.80
2018-11-23T11:56:10.248Z,9.80
2018-11-23T11:58:38.404Z,10.20
2018-11-23T12:01:06.704Z,11.40
2018-11-23T12:03:34.843Z,11.40
2018-11-23T12:06:02.977Z,11.00
2018-11-23T12:08:31.125Z,10.90
2018-11-23T12:10:59.272Z,10.80
2018-11-23T12:13:27.404Z,10.70
2018-11-23T12:15:55.560Z,10.60
2018-11-23T12:18:23.702Z,10.50
2018-11-23T12:20:52.019Z,10.40
2018-11-23T12:23:20.153Z,10.40
2018-11-23T12:25:48.289Z,10.50
2018-11-23T12:28:16.433Z,10.60
2018-11-23T12:30:44.562Z,10.70
2018-11-23T12:33:12.669Z,10.70
2018-11-23T12:35:40.808Z,10.70
2018-11-23T12:38:08.964Z,10.80
2018-11-23T12:40:37.088Z,10.80
2018-11-23T12:43:05.441Z,10.70
2018-11-23T12:45:33.550Z,10.70
2018-11-23T12:48:01.697Z,10.60
2018-11-23T12:50:30.968Z,10.50
2018-11-23T12:53:06.139Z,10.60
2018-11-23T12:55:27.265Z,10.50
2018-11-23T12:57:55.377Z,10.50
2018-11-23T13:00:26.477Z,10.60
2018-11-23T13:02:57.140Z,10.60
2018-11-23T13:05:26.212Z,10.60
2018-11-23T13:07:55.300Z,10.50
2018-11-23T13:10:24.326Z,10.50
2018-11-23T13:12:52.879Z,10.40
2018-11-23T13:15:21.070Z,10.40
2018-11-23T13:17:49.193Z,10.40
2018-11-23T13:20:17.299Z,10.30
2018-11-23T13:22:45.427Z,10.40
2018-11-23T13:25:15.905Z,10.40
2018-11-23T13:27:44.060Z,10.80
2018-11-23T13:30:15.293Z,10.80
2018-11-23T13:32:43.802Z,10.70
2018-11-23T13:35:13.749Z,10.60
2018-11-23T13:37:42.057Z,10.60
2018-11-23T13:40:12.621Z,10.50
2018-11-23T13:42:40.763Z,10.70
2018-11-23T13:45:10.617Z,10.60
2018-11-23T13:47:38.748Z,10.60
2018-11-23T13:50:08.803Z,10.50
2018-11-23T13:52:36.951Z,10.60
2018-11-23T13:55:05.868Z,10.60
2018-11-23T13:57:33.997Z,10.60
2018-11-23T14:00:02.223Z,10.60
2018-11-23T14:02:30.598Z,10.60
2018-11-23T14:04:58.727Z,10.60
2018-11-23T14:07:27.049Z,10.50
2018-11-23T14:09:55.174Z,10.50
2018-11-23T14:12:23.309Z,10.50
2018-11-23T14:14:51.449Z,10.50
2018-11-23T14:19:54.161Z,10.70
2018-11-23T14:22:22.259Z,11.00
2018-11-23T14:24:50.367Z,10.90
2018-11-23T14:27:18.467Z,10.80
2018-11-23T14:29:46.603Z,10.60
2018-11-23T14:32:14.757Z,10.40
2018-11-23T14:34:42.909Z,10.40
2018-11-23T14:37:11.011Z,10.40
2018-11-23T14:39:39.126Z,10.30
2018-11-23T14:42:07.260Z,10.30
2018-11-23T14:44:35.378Z,10.30
2018-11-23T14:47:03.525Z,10.20
2018-11-23T14:49:31.635Z,10.10
2018-11-23T14:51:59.767Z,10.10
2018-11-23T14:54:27.877Z,10.00
2018-11-23T14:56:56.801Z,10.00
2018-11-23T14:59:24.904Z,10.30
2018-11-23T15:01:53.018Z,12.70
2018-11-23T15:04:21.129Z,12.20
2018-11-23T15:06:49.243Z,11.50
2018-11-23T15:09:17.380Z,11.00
2018-11-23T15:11:45.484Z,10.70
2018-11-23T15:14:13.601Z,10.40
2018-11-23T15:16:41.695Z,10.20
2018-11-23T15:19:09.856Z,10.10
2018-11-23T15:21:37.960Z,9.90
2018-11-23T15:24:06.291Z,9.80
2018-11-23T15:26:34.391Z,9.70
2018-11-23T15:29:02.502Z,9.60
2018-11-23T15:31:30.625Z,9.50
2018-11-23T15:33:58.727Z,9.50
2018-11-23T15:36:26.961Z,9.40
2018-11-23T15:38:55.069Z,9.30
2018-11-23T15:41:23.197Z,9.30
2018-11-23T15:43:51.319Z,9.30
2018-11-23T15:46:19.508Z,9.20
2018-11-23T15:48:47.615Z,9.20
2018-11-23T15:51:15.738Z,9.20
2018-11-23T15:53:43.884Z,9.30
2018-11-23T15:56:12.025Z,9.20
2018-11-23T15:58:40.278Z,9.20
2018-11-23T16:01:08.379Z,9.10
2018-11-23T16:03:36.501Z,9.00
2018-11-23T16:06:05.187Z,9.00
2018-11-23T16:08:33.507Z,8.90
2018-11-23T16:11:01.629Z,8.80
2018-11-23T16:13:29.736Z,8.70
2018-11-23T16:15:57.865Z,8.70
2018-11-23T16:18:25.984Z,8.70
2018-11-23T16:20:54.128Z,8.60
2018-11-23T16:23:22.371Z,8.50
2018-11-23T16:25:51.288Z,8.50
2018-11-23T16:28:19.399Z,8.50
2018-11-23T16:30:48.967Z,8.50
2018-11-23T16:33:18.743Z,8.50
2018-11-23T16:35:47.622Z,8.30
2018-11-23T16:38:17.271Z,8.30
2018-11-23T16:40:47.177Z,8.20
2018-11-23T16:43:15.662Z,8.10
2018-11-23T16:45:44.245Z,8.00
2018-11-23T16:48:13.232Z,8.00
2018-11-23T16:50:41.371Z,7.90
2018-11-23T16:53:09.682Z,7.90
2018-11-23T16:55:37.818Z,7.80
2018-11-23T16:58:07.355Z,7.80
2018-11-23T17:00:36.983Z,7.90
2018-11-23T17:03:07.610Z,7.90
2018-11-23T17:05:37.419Z,7.80
2018-11-23T17:08:06.747Z,7.80
2018-11-23T17:10:34.874Z,7.70
2018-11-23T17:13:03.065Z,7.80
2018-11-23T17:15:31.347Z,7.80
2018-11-23T17:18:03.048Z,7.70
2018-11-23T17:20:32.327Z,7.70
2018-11-23T17:23:01.295Z,7.60
2018-11-23T17:25:30.099Z,7.60
2018-11-23T17:27:59.485Z,7.60
2018-11-23T17:30:28.916Z,7.60
2018-11-23T17:32:57.060Z,7.70
2018-11-23T17:35:25.465Z,7.60
2018-11-23T17:37:53.605Z,7.50
2018-11-23T17:40:23.043Z,7.40
2018-11-23T17:42:51.173Z,7.40
2018-11-23T17:45:21.209Z,7.40
2018-11-23T17:47:49.831Z,7.40
2018-11-23T17:50:19.191Z,7.30
2018-11-23T17:52:47.784Z,7.30
2018-11-23T17:55:15.981Z,7.30
2018-11-23T17:57:44.738Z,7.30
2018-11-23T18:00:14.366Z,7.20
2018-11-23T18:02:42.846Z,7.10
2018-11-23T18:05:12.254Z,7.10
2018-11-23T18:07:40.359Z,7.10
2018-11-23T18:10:10.595Z,7.10
2018-11-23T18:12:38.709Z,7.10
2018-11-23T18:15:09.372Z,7.00
2018-11-23T18:17:37.530Z,7.00
2018-11-23T18:20:08.242Z,7.00
2018-11-23T18:22:36.788Z,7.00
2018-11-23T18:25:06.403Z,6.90
2018-11-23T18:27:34.660Z,6.90
2018-11-23T18:30:02.771Z,6.90
2018-11-23T18:32:30.884Z,6.90
2018-11-23T18:34:58.992Z,6.80
2018-11-23T18:37:27.212Z,6.80
2018-11-23T18:39:55.419Z,6.80
2018-11-23T18:42:23.553Z,6.80
2018-11-23T18:44:51.651Z,6.80
2018-11-23T18:47:19.789Z,6.70
2018-11-23T18:49:47.902Z,6.60
2018-11-23T18:52:16.539Z,6.60
2018-11-23T18:54:44.683Z,6.60
2018-11-23T18:57:12.796Z,6.60
2018-11-23T18:59:40.907Z,6.60
2018-11-23T19:02:09.030Z,6.60
2018-11-23T19:04:37.284Z,6.60
2018-11-23T19:07:08.636Z,6.50
2018-11-23T19:09:33.863Z,6.40
2018-11-23T19:12:01.977Z,6.50
2018-11-23T19:14:30.093Z,6.50
2018-11-23T19:16:58.243Z,6.50
2018-11-23T19:19:26.477Z,6.40
2018-11-23T19:21:54.605Z,6.40
2018-11-23T19:24:22.724Z,6.40
2018-11-23T19:26:50.841Z,6.40
2018-11-23T19:29:18.955Z,6.30
2018-11-23T19:31:47.224Z,6.30
2018-11-23T19:34:15.524Z,6.30
2018-11-23T19:36:43.670Z,6.30
2018-11-23T19:39:11.796Z,6.20
2018-11-23T19:41:39.937Z,6.20
2018-11-23T19:44:08.901Z,6.20
2018-11-23T19:46:36.441Z,6.20
2018-11-23T19:49:04.659Z,6.20
2018-11-23T19:51:32.795Z,6.20
2018-11-23T19:54:00.931Z,6.20
2018-11-23T19:56:29.535Z,6.20
2018-11-23T19:58:57.493Z,6.20
2018-11-23T20:01:25.661Z,6.10
2018-11-23T20:03:53.825Z,6.00
2018-11-23T20:06:21.939Z,6.00
2018-11-23T20:08:50.077Z,6.00
2018-11-23T20:11:18.215Z,6.00
2018-11-23T20:13:46.470Z,5.90
2018-11-23T20:16:14.604Z,5.80
2018-11-23T20:18:42.731Z,5.80
2018-11-23T20:21:10.900Z,5.80
2018-11-23T20:23:39.046Z,5.80
2018-11-23T20:26:07.904Z,5.80
2018-11-23T20:28:36.141Z,5.70
2018-11-23T20:31:04.269Z,5.80
2018-11-23T20:33:32.428Z,5.80
2018-11-23T20:36:00.572Z,5.70
2018-11-23T20:38:28.681Z,5.70
2018-11-23T20:40:56.916Z,5.70
2018-11-23T20:43:25.052Z,5.70
2018-11-23T20:45:53.177Z,5.70
2018-11-23T20:48:21.313Z,5.70
2018-11-23T20:50:49.426Z,5.70
2018-11-23T20:53:17.667Z,5.70
2018-11-23T20:55:45.880Z,5.70
2018-11-23T20:58:14.013Z,5.70
2018-11-23T21:00:42.128Z,5.60
2018-11-23T21:03:10.236Z,5.60
2018-11-23T21:05:38.327Z,5.60
2018-11-23T21:08:06.588Z,5.60
2018-11-23T21:10:34.685Z,5.60
2018-11-23T21:13:02.800Z,5.60
2018-11-23T21:15:31.703Z,5.70
2018-11-23T21:18:02.007Z,5.70
2018-11-23T21:20:30.123Z,5.70
2018-11-23T21:22:58.262Z,5.70
2018-11-23T21:25:26.406Z,5.70
2018-11-23T21:27:54.588Z,5.70
2018-11-23T21:30:23.576Z,5.70
2018-11-23T21:32:52.727Z,5.70
2018-11-23T21:35:20.932Z,5.70
2018-11-23T21:37:49.060Z,5.70
2018-11-23T21:40:17.543Z,5.70
2018-11-23T21:42:45.670Z,5.70
2018-11-23T21:45:15.805Z,5.70
2018-11-23T21:47:43.941Z,5.70
2018-11-23T21:50:13.985Z,5.70
2018-11-23T21:52:42.115Z,5.60
2018-11-23T21:55:14.121Z,5.60
2018-11-23T21:57:42.229Z,5.60
2018-11-23T22:00:12.485Z,5.60
2018-11-23T22:02:40.714Z,5.60
2018-11-23T22:05:09.179Z,5.60
2018-11-23T22:07:37.489Z,5.60
2018-11-23T22:10:09.320Z,5.60
2018-11-23T22:12:37.442Z,5.60
2018-11-23T22:15:08.213Z,5.70
2018-11-23T22:17:36.435Z,5.70
2018-11-23T22:20:07.960Z,5.70
2018-11-23T22:22:36.464Z,5.70
2018-11-23T22:25:05.285Z,5.70
2018-11-23T22:27:33.615Z,5.70
2018-11-23T22:30:02.465Z,5.70
2018-11-23T22:32:31.182Z,5.70
2018-11-23T22:34:59.474Z,5.70
2018-11-23T22:37:27.593Z,5.70
2018-11-23T22:39:55.744Z,5.70
2018-11-23T22:42:23.869Z,5.70
2018-11-23T22:44:52.005Z,5.70
2018-11-23T22:47:20.132Z,5.70
2018-11-23T22:49:48.265Z,5.70
2018-11-23T22:52:16.388Z,5.70
2018-11-23T22:54:44.519Z,5.70
2018-11-23T22:57:12.721Z,5.70
2018-11-23T22:59:40.859Z,5.80
2018-11-23T23:02:08.986Z,5.80
2018-11-23T23:04:37.126Z,5.80
2018-11-23T23:07:05.271Z,5.80
2018-11-23T23:09:33.384Z,5.80
2018-11-23T23:12:01.500Z,5.80
2018-11-23T23:14:29.624Z,5.80
2018-11-23T23:16:57.739Z,5.80
2018-11-23T23:19:25.881Z,5.80
2018-11-23T23:21:54.330Z,5.80
2018-11-23T23:24:22.465Z,5.80
2018-11-23T23:26:50.605Z,5.90
2018-11-23T23:31:53.512Z,5.90
2018-11-23T23:34:21.772Z,5.90
2018-11-23T23:36:49.986Z,5.90
2018-11-23T23:39:18.207Z,5.90
2018-11-23T23:41:46.482Z,5.90
2018-11-23T23:44:14.768Z,5.90
2018-11-23T23:46:42.861Z,6.00
2018-11-23T23:49:11.001Z,5.90
2018-11-23T23:51:39.134Z,5.90
2018-11-23T23:54:07.245Z,5.90
2018-11-23T23:56:35.348Z,5.90
2018-11-23T23:59:03.461Z,5.90
